createdAt,value
2023-03-19T00:02:51.833Z,1.10
2023-03-19T00:07:49.913Z,1.10
2023-03-19T00:12:57.817Z,1.10
2023-03-19T00:18:06.100Z,1.10
2023-03-19T00:23:15.541Z,1.00
2023-03-19T00:28:25.410Z,1.00
2023-03-19T00:33:33.517Z,1.00
2023-03-19T00:38:42.098Z,0.90
2023-03-19T00:44:01.355Z,0.90
2023-03-19T00:49:02.653Z,0.90
2023-03-19T00:54:00.721Z,0.80
2023-03-19T00:59:08.935Z,0.70
2023-03-19T01:04:17.172Z,0.70
2023-03-19T01:09:28.265Z,0.70
2023-03-19T01:14:26.480Z,0.60
2023-03-19T01:19:35.036Z,0.60
2023-03-19T01:24:48.315Z,0.60
2023-03-19T01:29:48.145Z,0.50
2023-03-19T01:34:56.796Z,0.50
2023-03-19T01:40:07.550Z,0.50
2023-03-19T01:45:05.429Z,0.40
2023-03-19T01:50:16.466Z,0.40
2023-03-19T01:55:14.581Z,0.40
2023-03-19T02:00:24.154Z,0.40
2023-03-19T02:05:34.111Z,0.30
2023-03-19T02:10:43.300Z,0.30
2023-03-19T02:15:51.348Z,0.20
2023-03-19T02:21:01.214Z,0.20
2023-03-19T02:26:09.249Z,0.20
2023-03-19T02:31:17.673Z,0.10
2023-03-19T02:36:25.777Z,0.10
2023-03-19T02:41:35.329Z,0.10
2023-03-19T02:46:44.090Z,0.10
2023-03-19T02:51:55.746Z,0.00
2023-03-19T02:56:53.990Z,0.00
2023-03-19T03:02:02.579Z,0.00
2023-03-19T03:07:10.685Z,0.00
2023-03-19T03:12:21.737Z,0.00
2023-03-19T03:17:20.827Z,-0.10
2023-03-19T03:22:32.265Z,-0.10
2023-03-19T03:27:30.140Z,-0.10
2023-03-19T03:32:38.923Z,-0.10
2023-03-19T03:37:47.310Z,-0.10
2023-03-19T03:42:56.498Z,-0.20
2023-03-19T03:48:05.778Z,-0.20
2023-03-19T03:53:15.165Z,-0.20
2023-03-19T03:58:25.686Z,-0.20
2023-03-19T04:03:24.261Z,-0.20
2023-03-19T04:08:35.077Z,-0.20
2023-03-19T04:13:34.552Z,-0.20
2023-03-19T04:18:43.357Z,-0.20
2023-03-19T04:23:52.634Z,-0.20
2023-03-19T04:29:01.964Z,-0.20
2023-03-19T04:34:10.619Z,-0.10
2023-03-19T04:39:20.080Z,0.00
2023-03-19T04:44:28.684Z,0.00
2023-03-19T04:49:38.800Z,0.10
2023-03-19T04:54:38.588Z,0.20
2023-03-19T04:59:47.493Z,0.30
2023-03-19T05:04:56.620Z,0.40
2023-03-19T05:10:04.754Z,0.50
2023-03-19T05:15:13.259Z,0.70
2023-03-19T05:20:22.710Z,1.00
2023-03-19T05:25:31.551Z,1.30
2023-03-19T05:30:44.759Z,1.50
2023-03-19T05:35:44.486Z,1.70
2023-03-19T05:40:52.620Z,2.00
2023-03-19T05:45:56.992Z,2.20
2023-03-19T05:51:07.307Z,2.50
2023-03-19T05:56:05.928Z,2.70
2023-03-19T06:01:15.070Z,3.00
2023-03-19T06:06:25.363Z,3.30
2023-03-19T06:11:24.434Z,3.60
2023-03-19T06:16:33.915Z,3.80
2023-03-19T06:21:42.197Z,4.10
2023-03-19T06:26:53.784Z,4.40
2023-03-19T06:31:52.864Z,4.60
2023-03-19T06:37:04.440Z,5.00
2023-03-19T06:42:02.532Z,5.20
2023-03-19T06:47:11.788Z,5.40
2023-03-19T06:52:21.845Z,5.80
2023-03-19T06:57:21.124Z,6.10
2023-03-19T07:02:29.189Z,6.40
2023-03-19T07:07:38.138Z,6.60
2023-03-19T07:12:47.042Z,6.80
2023-03-19T07:17:56.529Z,7.00
2023-03-19T07:23:06.974Z,7.20
2023-03-19T07:28:05.206Z,7.40
2023-03-19T07:33:14.777Z,7.60
2023-03-19T07:38:23.278Z,7.80
2023-03-19T07:43:33.807Z,8.00
2023-03-19T07:48:32.817Z,8.10
2023-03-19T07:53:41.624Z,8.10
2023-03-19T07:58:50.244Z,8.20
2023-03-19T08:03:59.446Z,8.40
2023-03-19T08:09:07.950Z,8.60
2023-03-19T08:14:16.840Z,8.70
2023-03-19T08:19:25.286Z,8.90
2023-03-19T08:24:34.788Z,9.20
2023-03-19T08:29:44.406Z,9.40
2023-03-19T08:34:52.514Z,9.60
2023-03-19T08:40:01.975Z,9.80
2023-03-19T08:45:09.920Z,10.10
2023-03-19T08:50:20.511Z,10.20
2023-03-19T08:55:19.546Z,10.30
2023-03-19T09:00:27.974Z,10.50
2023-03-19T09:05:36.321Z,10.70
2023-03-19T09:10:45.009Z,10.90
2023-03-19T09:15:54.985Z,11.10
2023-03-19T09:21:05.568Z,11.40
2023-03-19T09:26:04.893Z,11.60
2023-03-19T09:31:16.045Z,11.80
2023-03-19T09:36:14.748Z,12.00
2023-03-19T09:41:24.208Z,12.20
2023-03-19T09:46:32.509Z,12.40
2023-03-19T09:51:41.076Z,12.60
2023-03-19T09:56:50.194Z,12.80
2023-03-19T10:01:58.409Z,13.00
2023-03-19T10:07:07.630Z,13.10
2023-03-19T10:12:16.978Z,13.30
2023-03-19T10:17:25.094Z,13.50
2023-03-19T10:22:35.106Z,13.60
2023-03-19T10:27:43.144Z,13.80
2023-03-19T10:32:53.490Z,13.90
2023-03-19T10:37:51.143Z,14.00
2023-03-19T10:43:01.161Z,14.10
2023-03-19T10:47:59.941Z,14.10
2023-03-19T10:53:08.308Z,14.20
2023-03-19T10:58:16.377Z,14.30
2023-03-19T11:03:26.278Z,14.40
2023-03-19T11:08:35.952Z,14.40
2023-03-19T11:13:42.925Z,14.60
2023-03-19T11:18:51.028Z,14.70
2023-03-19T11:24:00.959Z,14.80
2023-03-19T11:29:09.300Z,14.90
2023-03-19T11:34:17.709Z,15.00
2023-03-19T11:39:28.131Z,15.10
2023-03-19T11:44:26.328Z,15.20
2023-03-19T11:49:36.676Z,15.30
2023-03-19T11:54:36.874Z,15.30
2023-03-19T11:59:35.862Z,15.30
2023-03-19T12:04:44.525Z,15.40
2023-03-19T12:09:53.004Z,15.30
2023-03-19T12:15:02.625Z,15.20
2023-03-19T12:20:11.092Z,15.20
2023-03-19T12:25:20.842Z,15.20
2023-03-19T12:30:30.487Z,15.20
2023-03-19T12:35:40.178Z,15.20
2023-03-19T12:40:50.813Z,15.20
2023-03-19T12:45:42.856Z,15.20
2023-03-19T12:50:51.882Z,15.20
2023-03-19T12:56:00.539Z,15.20
2023-03-19T13:01:09.171Z,15.20
2023-03-19T13:06:12.503Z,15.20
2023-03-19T13:11:22.541Z,15.20
2023-03-19T13:16:24.583Z,15.20
2023-03-19T13:21:22.956Z,15.10
2023-03-19T13:26:32.523Z,14.80
2023-03-19T13:31:41.559Z,14.70
2023-03-19T13:36:51.094Z,14.70
2023-03-19T13:42:00.946Z,14.60
2023-03-19T13:47:09.411Z,14.60
2023-03-19T13:52:17.861Z,14.70
2023-03-19T13:57:28.327Z,14.80
2023-03-19T14:02:27.474Z,14.80
2023-03-19T14:07:37.713Z,14.80
2023-03-19T14:12:37.402Z,14.70
2023-03-19T14:17:47.318Z,14.70
2023-03-19T14:22:56.800Z,14.60
2023-03-19T14:28:07.047Z,14.40
2023-03-19T14:33:06.215Z,14.20
2023-03-19T14:38:17.139Z,14.10
2023-03-19T14:43:15.281Z,13.90
2023-03-19T14:48:23.966Z,13.90
2023-03-19T14:53:33.410Z,13.80
2023-03-19T14:58:45.340Z,13.70
2023-03-19T15:03:44.607Z,13.50
2023-03-19T15:08:54.112Z,13.40
2023-03-19T15:14:02.264Z,13.40
2023-03-19T15:19:10.966Z,13.40
2023-03-19T15:24:19.010Z,13.20
2023-03-19T15:29:29.271Z,13.10
2023-03-19T15:34:36.930Z,13.00
2023-03-19T15:39:45.820Z,12.90
2023-03-19T15:44:55.297Z,12.60
2023-03-19T15:50:05.755Z,12.40
2023-03-19T15:55:03.849Z,12.20
2023-03-19T16:00:12.380Z,11.90
2023-03-19T16:05:23.405Z,11.50
2023-03-19T16:10:22.812Z,11.10
2023-03-19T16:15:32.053Z,10.70
2023-03-19T16:20:41.357Z,10.40
2023-03-19T16:25:49.358Z,10.10
2023-03-19T16:30:57.948Z,9.70
2023-03-19T16:36:06.118Z,9.30
2023-03-19T16:41:17.401Z,9.00
2023-03-19T16:46:17.048Z,8.80
2023-03-19T16:51:26.546Z,8.60
2023-03-19T16:56:34.802Z,8.40
2023-03-19T17:01:43.839Z,8.30
2023-03-19T17:06:53.171Z,8.00
2023-03-19T17:12:01.822Z,7.70
2023-03-19T17:17:11.312Z,7.50
2023-03-19T17:22:19.778Z,7.30
2023-03-19T17:27:28.197Z,7.10
2023-03-19T17:32:37.871Z,6.90
2023-03-19T17:37:50.076Z,6.80
2023-03-19T17:42:49.214Z,6.60
2023-03-19T17:47:58.844Z,6.50
2023-03-19T17:53:07.133Z,6.30
2023-03-19T17:58:15.814Z,6.10
2023-03-19T18:03:24.202Z,6.00
2023-03-19T18:08:34.990Z,5.90
2023-03-19T18:13:36.380Z,5.70
2023-03-19T18:18:36.671Z,5.60
2023-03-19T18:23:36.573Z,5.60
2023-03-19T18:28:45.463Z,5.50
2023-03-19T18:33:53.777Z,5.40
2023-03-19T18:39:03.304Z,5.20
2023-03-19T18:44:12.585Z,5.10
2023-03-19T18:49:21.532Z,4.90
2023-03-19T18:54:32.508Z,4.80
2023-03-19T18:59:32.940Z,4.80
2023-03-19T19:04:29.657Z,4.80
2023-03-19T19:09:35.250Z,4.70
2023-03-19T19:14:44.900Z,4.50
2023-03-19T19:19:53.322Z,4.40
2023-03-19T19:25:01.816Z,4.40
2023-03-19T19:30:10.982Z,4.30
2023-03-19T19:35:21.096Z,4.20
2023-03-19T19:40:30.210Z,4.20
2023-03-19T19:45:29.636Z,4.10
2023-03-19T19:50:39.501Z,4.10
2023-03-19T19:55:48.443Z,4.00
2023-03-19T20:01:03.893Z,3.90
2023-03-19T20:06:06.849Z,3.90
2023-03-19T20:11:16.545Z,3.80
2023-03-19T20:16:26.372Z,3.80
2023-03-19T20:21:34.327Z,3.80
2023-03-19T20:26:44.213Z,3.70
2023-03-19T20:31:52.564Z,3.60
2023-03-19T20:37:01.224Z,3.60
2023-03-19T20:42:11.699Z,3.50
2023-03-19T20:47:11.967Z,3.40
2023-03-19T20:52:03.605Z,3.30
2023-03-19T20:57:12.752Z,3.20
2023-03-19T21:02:22.766Z,3.10
2023-03-19T21:07:32.421Z,3.10
2023-03-19T21:12:41.851Z,3.10
2023-03-19T21:17:51.070Z,3.10
2023-03-19T21:22:59.304Z,3.10
2023-03-19T21:28:08.162Z,3.10
2023-03-19T21:33:17.483Z,3.00
2023-03-19T21:38:26.082Z,2.80
2023-03-19T21:43:34.315Z,2.80
2023-03-19T21:48:43.018Z,2.70
2023-03-19T21:53:51.216Z,2.70
2023-03-19T21:59:01.591Z,2.60
2023-03-19T22:03:59.692Z,2.60
2023-03-19T22:09:08.218Z,2.60
2023-03-19T22:14:19.512Z,2.60
2023-03-19T22:19:19.005Z,2.40
2023-03-19T22:24:27.343Z,2.40
2023-03-19T22:29:36.845Z,2.40
2023-03-19T22:34:46.458Z,2.40
2023-03-19T22:39:56.440Z,2.30
2023-03-19T22:45:06.302Z,2.30
2023-03-19T22:50:14.794Z,2.20
2023-03-19T22:55:24.815Z,2.20
2023-03-19T23:00:23.151Z,2.10
2023-03-19T23:05:25.530Z,2.10
2023-03-19T23:10:36.350Z,2.10
2023-03-19T23:15:36.583Z,2.00
2023-03-19T23:20:35.056Z,2.00
2023-03-19T23:25:43.606Z,2.00
2023-03-19T23:30:54.046Z,2.00
2023-03-19T23:35:52.734Z,1.90
2023-03-19T23:41:01.328Z,1.90
2023-03-19T23:46:10.130Z,1.80
2023-03-19T23:51:18.603Z,1.80
2023-03-19T23:56:27.855Z,1.80
